Terminal Aerodrome Forecast
Issued by NWS Grand Rapids, MI

Home | Current Version | Previous Version | Text Only | Print | Product List | Glossary On
Versions: 1 2 3 4 5 6 7 8 9 10 11 12 13 14
612
FTUS43 KGRR 291421 AAB
TAFGRR
TAF AMD
KGRR 291421Z 2914/3012 05014G20KT 4SM RA BR OVC015
     FM291700 05012G22KT 2SM -RA BR OVC008
     FM292200 06010G16KT 4SM -RA OVC015
     FM300200 06012KT 4SM -RA BR OVC009=

USA.gov is the U.S. government's official web portal to all federal, state and local government web resources and services.